Flight Track Log - Related Links

Times and Time Zones

All times are in EDT time to prevent confusion due to time zone crossing. See the UAL432 flight status page for this flight to view local times or setup timezone preferences in your user account.

Time Position Orientation Groundspeed Altitude Reporting Facility
EDT Latitude Longitude Course Direction KTS MPH feet Rate Location/Type
Mon 11:37:16 AM 29.9783 -95.2958 30° Northeast 182 209 800  Level Houston Center
Mon 11:38:12 AM 30.0239 -95.2697 26° Northeast 231 266 2,600 1,627 Climbing Houston Center
Mon 11:39:00 AM 30.3038 -95.2013 14° North  Level FlightAware Approximate
Mon 11:39:14 AM 30.0939 -95.2528 12° North 254 292 4,000  Level Houston Center
Mon 11:40:00 AM 30.4115 -95.1609 23° Northeast  Level FlightAware Approximate
Mon 11:40:16 AM 30.1706 -95.2267 16° North 284 327 5,500  Level Houston Center
Mon 11:41:00 AM 30.5132 -95.1021 27° Northeast  Level FlightAware Approximate
Mon 11:41:19 AM 30.2464 -95.1992 17° North 285 328 8,500  Level Houston Center
Mon 11:42:00 AM 30.6131 -95.0413 30° Northeast  Level FlightAware Approximate
Mon 11:42:21 AM 30.3464 -95.1650 16° North 306 352 11,000  Level Houston Center
Mon 11:43:23 AM 30.4381 -95.1308 18° North 360 414 12,100 1,597 Climbing Houston Center
Mon 11:44:25 AM 30.5492 -95.0908 17° North 407 468 14,300 2,323 Climbing Houston Center
Mon 11:45:27 AM 30.6753 -95.0211 25° Northeast 419 482 16,900 2,177 Climbing Houston Center
Mon 11:46:29 AM 30.7814 -94.9544 28° Northeast 429 494 18,800 1,742 Climbing Houston Center
Mon 11:47:31 AM 30.8889 -94.8869 28° Northeast 437 503 20,500 1,548 Climbing Houston Center
Mon 11:48:33 AM 30.9997 -94.8169 28° Northeast 448 516 22,000 1,403 Climbing Houston Center
Mon 11:49:35 AM 31.1131 -94.7456 28° Northeast 460 529 23,400 1,452 Climbing Houston Center
Mon 11:50:37 AM 31.2464 -94.6550 30° Northeast 492 566 25,000 1,248 Climbing Houston Center
Mon 11:51:40 AM 31.3597 -94.5794 30° Northeast 482 555 26,000 912 Climbing Houston Center
Mon 11:52:42 AM 31.4756 -94.4994 30° Northeast 484 557 26,900 919 Climbing Houston Center
Mon 11:53:44 AM 31.5939 -94.4189 30° Northeast 489 563 27,900 1,306 Climbing Houston Center
Mon 11:54:46 AM 31.7336 -94.3206 31° Northeast 488 562 29,600 1,500 Climbing Houston Center
Mon 11:55:48 AM 31.8481 -94.2411 31° Northeast 482 555 31,000 1,210 Climbing Houston Center
Mon 11:56:50 AM 31.9550 -94.1656 31° Northeast 478 550 32,100 1,065 Climbing Houston Center
Mon 11:57:52 AM 32.0750 -94.0803 31° Northeast 474 545 33,200 1,113 Climbing Houston Center
Mon 11:58:54 AM 32.1883 -94.0011 31° Northeast 474 545 34,400 871 Climbing Houston Center
Mon 11:59:56 AM 32.3011 -93.9208 31° Northeast 473 544 35,000 281 Climbing Houston Center
Mon 12:01:02 PM 32.4439 -93.8144 32° Northeast 469 540 35,000  Level Fort Worth Center
Mon 12:02:02 PM 32.5564 -93.7386 30° Northeast 469 540 35,000  Level Fort Worth Center
Mon 12:03:02 PM 32.6586 -93.6628 32° Northeast 469 540 35,000  Level Fort Worth Center
Mon 12:04:02 PM 32.7731 -93.5814 31° Northeast 469 540 35,000  Level Fort Worth Center
Mon 12:05:02 PM 32.8872 -93.5000 31° Northeast 469 540 35,000 -450 Level Fort Worth Center
Mon 12:06:02 PM 32.9953 -93.4183 32° Northeast 469 540 34,100 -900 Descending Fort Worth Center
Mon 12:07:02 PM 33.1097 -93.3364 31° Northeast 469 540 33,200 -950 Descending Fort Worth Center
Mon 12:08:02 PM 33.2197 -93.2569 31° Northeast 469 540 32,200 -1,050 Descending Fort Worth Center
Mon 12:09:02 PM 33.3300 -93.1794 30° Northeast 463 533 31,100 -459 Descending Fort Worth Center
Mon 12:10:39 PM 33.5114 -93.0481 31° Northeast 475 547 31,000 -38 Descending Memphis Center
Mon 12:11:39 PM 33.6258 -92.9667 31° Northeast 475 547 31,000  Level Memphis Center
Mon 12:12:39 PM 33.7403 -92.8828 31° Northeast 475 547 31,000  Level Memphis Center
Mon 12:13:39 PM 33.8547 -92.7958 32° Northeast 475 547 31,000  Level Memphis Center
Mon 12:14:39 PM 33.9731 -92.7142 30° Northeast 475 547 31,000  Level Memphis Center
Mon 12:15:39 PM 34.0961 -92.6172 33° Northeast 480 552 31,000  Level Memphis Center
Mon 12:16:39 PM 34.2167 -92.5247 32° Northeast 486 559 31,000  Level Memphis Center
Mon 12:17:39 PM 34.3350 -92.4372 31° Northeast 491 565 31,000  Level Memphis Center
Mon 12:18:39 PM 34.4511 -92.3494 32° Northeast 491 565 31,000  Level Memphis Center
Mon 12:19:39 PM 34.5714 -92.2614 31° Northeast 491 565 31,000  Level Memphis Center
Mon 12:20:39 PM 34.6917 -92.1783 30° Northeast 496 571 31,000  Level Memphis Center
Mon 12:21:39 PM 34.8278 -92.1356 14° North 490 564 31,000  Level Memphis Center
Mon 12:22:39 PM 34.9639 -92.0953 14° North 490 564 31,000  Level Memphis Center
Mon 12:23:39 PM 35.1003 -92.0575 13° North 495 570 31,000  Level Memphis Center
Mon 12:24:39 PM 35.2361 -92.0197 13° North 495 570 31,000  Level Memphis Center
Mon 12:25:39 PM 35.3744 -91.9792 13° North 495 570 31,000  Level Memphis Center
Mon 12:26:39 PM 35.5125 -91.9383 14° North 500 575 31,000  Level Memphis Center
Mon 12:27:39 PM 35.6467 -91.9000 13° North 500 575 31,000  Level Memphis Center
Mon 12:28:39 PM 35.7825 -91.8617 13° North 500 575 31,000  Level Memphis Center
Mon 12:29:39 PM 35.9081 -91.8231 14° North 500 575 31,000  Level Memphis Center
Mon 12:30:39 PM 36.0419 -91.7869 12° North 500 575 31,000  Level Memphis Center
Mon 12:31:39 PM 36.1781 -91.7456 14° North 495 570 31,000  Level Memphis Center
Mon 12:32:39 PM 36.3139 -91.7067 13° North 495 570 31,000  Level Memphis Center
Mon 12:33:39 PM 36.4542 -91.6650 13° North 495 570 31,000  Level Memphis Center
Mon 12:35:06 PM 36.6611 -91.5958 15° North 511 588 31,000  Level Kansas City Center
Mon 12:36:10 PM 36.7997 -91.5558 13° North 511 588 31,000  Level Kansas City Center
Mon 12:37:11 PM 36.9364 -91.5156 13° North 506 582 31,000  Level Kansas City Center
Mon 12:38:15 PM 37.1006 -91.4653 14° North 506 582 31,000  Level Kansas City Center
Mon 12:39:15 PM 37.2375 -91.4239 14° North 506 582 31,000  Level Kansas City Center
Mon 12:40:17 PM 37.3744 -91.3814 14° North 507 583 31,000  Level Kansas City Center
Mon 12:41:21 PM 37.5117 -91.3408 13° North 507 583 31,000  Level Kansas City Center
Mon 12:42:21 PM 37.6472 -91.2992 14° North 504 580 31,000  Level Kansas City Center
Mon 12:43:25 PM 37.7839 -91.2561 14° North 506 582 31,000  Level Kansas City Center
Mon 12:44:26 PM 37.9467 -91.2039 14° North 505 581 31,000 -98 Level Kansas City Center
Mon 12:45:27 PM 38.0814 -91.1617 14° North 501 577 30,800 -576 Descending Kansas City Center
Mon 12:46:31 PM 38.2206 -91.1192 13° North 512 589 29,800 -864 Descending Kansas City Center
Mon 12:47:32 PM 38.3547 -91.0756 14° North 501 577 29,000 -393 Descending Kansas City Center
Mon 12:48:33 PM 38.4906 -91.0347 13° North 502 578 29,000  Level Kansas City Center
Mon 12:49:37 PM 38.6253 -90.9922 14° North 498 573 29,000  Level Kansas City Center
Mon 12:50:38 PM 38.7844 -90.9228 19° North 505 581 29,000  Level Kansas City Center
Mon 12:51:41 PM 38.9133 -90.8522 23° Northeast 504 580 29,000  Level Kansas City Center
Mon 12:52:42 PM 39.0431 -90.7822 23° Northeast 505 581 29,000  Level Kansas City Center
Mon 12:53:45 PM 39.1836 -90.7086 22° Northeast 508 585 29,000  Level Kansas City Center
Mon 12:54:45 PM 39.3128 -90.6347 24° Northeast 505 581 29,000  Level Kansas City Center
Mon 12:55:49 PM 39.4408 -90.5631 23° Northeast 502 578 29,000  Level Kansas City Center
Mon 12:56:50 PM 39.5689 -90.4936 23° Northeast 500 575 29,000  Level Kansas City Center
Mon 12:57:51 PM 39.6975 -90.4236 23° Northeast 500 575 29,000  Level Kansas City Center
Mon 12:58:58 PM 39.8375 -90.3464 23° Northeast 498 573 29,000  Level Kansas City Center
Mon 12:59:58 PM 39.9644 -90.2736 24° Northeast 497 572 29,000  Level Kansas City Center
Mon 01:01:02 PM 40.0917 -90.2006 24° Northeast 499 574 29,000  Level Kansas City Center
Mon 01:02:02 PM 40.2189 -90.1292 23° Northeast 498 573 29,000  Level Kansas City Center
Mon 01:03:03 PM 40.3711 -90.0425 23° Northeast 497 572 29,000  Level Kansas City Center
Mon 01:03:37 PM 40.4206 -90.0139 24° Northeast 496 571 29,000  Level Chicago Center
Mon 01:04:39 PM 40.5667 -89.9306 23° Northeast 500 575 29,000  Level Chicago Center
Mon 01:05:41 PM 40.6917 -89.8572 24° Northeast 497 572 29,000 -145 Level Chicago Center
Mon 01:06:43 PM 40.8158 -89.7819 25° Northeast 493 567 28,700 -823 Descending Chicago Center
Mon 01:07:45 PM 40.9475 -89.7094 23° Northeast 509 586 27,300 -2,129 Descending Chicago Center
Mon 01:08:47 PM 41.0942 -89.6261 23° Northeast 494 568 24,300 -1,887 Descending Chicago Center
Mon 01:09:49 PM 41.1917 -89.5128 41° Northeast 483 556 23,400 -1,597 Descending Chicago Center
Mon 01:10:51 PM 41.2511 -89.3608 62° Northeast 468 539 21,000 -2,352 Descending Chicago Center
Mon 01:11:54 PM 41.3106 -89.2147 62° Northeast 455 524 18,500 -2,160 Descending Chicago Center
Mon 01:12:56 PM 41.3633 -89.0772 63° Northeast 428 493 16,500 -2,274 Descending Chicago Center
Mon 01:13:58 PM 41.4308 -88.9169 61° Northeast 418 481 13,800 -2,323 Descending Chicago Center
Mon 01:15:00 PM 41.4811 -88.7864 63° Northeast 397 457 11,700 -1,355 Descending Chicago Center
Mon 01:16:02 PM 41.5281 -88.6658 62° Northeast 368 423 11,000 -339 Descending Chicago Center
Mon 01:17:04 PM 41.5675 -88.5669 62° Northeast 301 346 11,000  Level Chicago Center
Mon 01:18:06 PM 41.6075 -88.4706 61° Northeast 297 342 11,000 -48 Level Chicago Center
Mon 01:19:08 PM 41.6586 -88.3806 53° Northeast 301 346 10,900 -823 Descending Chicago Center
Mon 01:20:10 PM 41.7214 -88.2756 51° Northeast 299 344 9,300 -1,161 Descending Chicago Center
Mon 01:21:12 PM 41.7986 -88.2769 359° North 287 330 8,500 -581 Descending Chicago Center
Mon 01:22:14 PM 41.8683 -88.2942 350° North 260 299 8,100 -576 Descending Chicago Center
Mon 01:23:17 PM 41.9264 -88.3094 349° North 216 249 7,300 -912 Descending Chicago Center
Mon 01:24:19 PM 41.9633 -88.2747 35° Northeast 184 212 6,200 -1,306 Descending Chicago Center
Mon 01:25:21 PM 41.9672 -88.1958 86° East 175 201 4,600 -1,548 Descending Chicago Center

Login

Don't have an account? Register now (free) for customized features, flight alerts, and more!